createdAt,value
2022-10-02T00:00:17.913Z,12.20
2022-10-02T00:05:52.202Z,12.20
2022-10-02T00:11:25.757Z,12.20
2022-10-02T00:16:59.652Z,12.10
2022-10-02T00:22:34.248Z,12.10
2022-10-02T00:28:15.897Z,12.10
2022-10-02T00:34:27.267Z,12.00
2022-10-02T00:40:37.478Z,11.90
2022-10-02T00:46:32.608Z,11.80
2022-10-02T00:52:18.580Z,11.80
2022-10-02T00:58:09.103Z,11.70
2022-10-02T01:03:53.388Z,11.60
2022-10-02T01:09:24.659Z,11.60
2022-10-02T01:14:52.827Z,11.60
2022-10-02T01:20:25.047Z,11.60
2022-10-02T01:25:53.196Z,11.60
2022-10-02T01:31:21.963Z,11.60
2022-10-02T01:36:50.350Z,11.60
2022-10-02T01:42:18.601Z,11.60
2022-10-02T01:48:01.980Z,11.50
2022-10-02T01:53:45.349Z,11.60
2022-10-02T01:59:32.896Z,11.60
2022-10-02T02:05:24.826Z,11.50
2022-10-02T02:11:02.119Z,11.50
2022-10-02T02:16:47.448Z,11.50
2022-10-02T02:22:29.104Z,11.50
2022-10-02T02:28:06.884Z,11.50
2022-10-02T02:33:48.237Z,11.50
2022-10-02T02:39:27.070Z,11.60
2022-10-02T02:45:20.349Z,11.60
2022-10-02T02:51:17.511Z,11.60
2022-10-02T02:56:48.506Z,11.60
2022-10-02T03:02:16.709Z,11.70
2022-10-02T03:07:55.074Z,11.60
2022-10-02T03:13:47.915Z,11.60
2022-10-02T03:19:41.118Z,11.70
2022-10-02T03:25:32.136Z,11.70
2022-10-02T03:31:01.081Z,11.70
2022-10-02T03:36:29.002Z,11.80
2022-10-02T03:41:56.928Z,11.80
2022-10-02T03:47:24.764Z,11.80
2022-10-02T03:52:53.828Z,11.80
2022-10-02T03:58:22.410Z,11.80
2022-10-02T04:03:57.502Z,11.80
2022-10-02T04:09:33.698Z,11.90
2022-10-02T04:15:15.085Z,11.90
2022-10-02T04:20:55.727Z,11.90
2022-10-02T04:26:34.371Z,12.00
2022-10-02T04:32:14.891Z,12.00
2022-10-02T04:38:16.607Z,12.00
2022-10-02T04:44:30.798Z,12.10
2022-10-02T04:50:38.319Z,12.10
2022-10-02T04:56:18.259Z,12.10
2022-10-02T05:02:10.269Z,12.10
2022-10-02T05:07:49.624Z,12.10
2022-10-02T05:13:42.571Z,12.10
2022-10-02T05:19:53.282Z,12.10
2022-10-02T05:25:35.688Z,12.10
2022-10-02T05:31:21.621Z,12.10
2022-10-02T05:36:59.217Z,12.10
2022-10-02T05:42:41.110Z,12.10
2022-10-02T05:48:30.767Z,12.10
2022-10-02T05:54:06.166Z,12.10
2022-10-02T05:59:48.903Z,12.10
2022-10-02T06:05:30.189Z,12.10
2022-10-02T06:11:07.367Z,12.10
2022-10-02T06:16:43.847Z,12.00
2022-10-02T06:22:19.719Z,12.10
2022-10-02T06:27:55.499Z,12.10
2022-10-02T06:33:26.348Z,12.10
2022-10-02T06:39:18.859Z,12.00
2022-10-02T06:45:12.910Z,12.00
2022-10-02T06:51:17.186Z,12.00
2022-10-02T06:57:08.384Z,12.00
2022-10-02T07:03:18.915Z,12.00
2022-10-02T07:09:01.670Z,12.00
2022-10-02T07:15:22.161Z,12.00
2022-10-02T07:21:01.798Z,12.00
2022-10-02T07:27:12.610Z,12.10
2022-10-02T07:33:04.792Z,12.10
2022-10-02T07:38:55.117Z,12.10
2022-10-02T07:45:02.298Z,12.10
2022-10-02T07:50:54.805Z,12.10
2022-10-02T07:56:23.557Z,12.20
2022-10-02T08:01:52.595Z,12.20
2022-10-02T08:07:20.851Z,12.30
2022-10-02T08:13:00.819Z,12.30
2022-10-02T08:18:38.149Z,12.40
2022-10-02T08:24:25.187Z,12.40
2022-10-02T08:30:03.109Z,12.50
2022-10-02T08:35:59.696Z,12.50
2022-10-02T08:42:33.966Z,12.60
2022-10-02T08:48:56.027Z,12.70
2022-10-02T08:54:58.760Z,12.80
2022-10-02T09:00:45.206Z,12.90
2022-10-02T09:06:43.225Z,12.90
2022-10-02T09:12:42.665Z,12.90
2022-10-02T09:19:01.683Z,13.00
2022-10-02T09:25:08.741Z,13.10
2022-10-02T09:30:57.622Z,13.30
2022-10-02T09:36:51.258Z,13.40
2022-10-02T09:42:53.790Z,13.50
2022-10-02T09:48:45.318Z,13.60
2022-10-02T09:55:00.155Z,13.70
2022-10-02T10:00:31.245Z,13.80
2022-10-02T10:06:26.004Z,13.90
2022-10-02T10:12:12.331Z,14.10
2022-10-02T10:18:20.992Z,14.20
2022-10-02T10:24:23.328Z,14.40
2022-10-02T10:30:27.614Z,14.60
2022-10-02T10:36:05.691Z,14.80
2022-10-02T10:42:27.777Z,14.90
2022-10-02T10:48:23.303Z,15.00
2022-10-02T10:54:22.856Z,15.20
2022-10-02T10:59:53.052Z,15.40
2022-10-02T11:05:55.479Z,15.90
2022-10-02T11:11:58.212Z,16.20
2022-10-02T11:17:48.391Z,16.40
2022-10-02T11:23:41.634Z,16.50
2022-10-02T11:29:51.099Z,16.50
2022-10-02T11:35:28.033Z,16.70
2022-10-02T11:41:09.111Z,17.20
2022-10-02T11:47:07.663Z,17.80
2022-10-02T11:53:05.052Z,18.10
2022-10-02T11:58:54.596Z,18.30
2022-10-02T12:05:18.398Z,18.40
2022-10-02T12:11:10.884Z,18.40
2022-10-02T12:17:16.830Z,18.30
2022-10-02T12:23:58.311Z,18.30
2022-10-02T12:30:01.457Z,18.30
2022-10-02T12:36:01.479Z,18.60
2022-10-02T12:41:55.378Z,18.60
2022-10-02T12:48:00.689Z,18.60
2022-10-02T12:54:09.670Z,18.90
2022-10-02T13:00:02.220Z,19.00
2022-10-02T13:06:13.312Z,19.10
2022-10-02T13:12:01.920Z,18.90
2022-10-02T13:17:56.268Z,18.80
2022-10-02T13:23:45.985Z,18.70
2022-10-02T13:29:54.968Z,18.40
2022-10-02T13:35:57.190Z,17.50
2022-10-02T13:42:00.005Z,16.20
2022-10-02T13:48:13.758Z,15.30
2022-10-02T13:54:24.963Z,14.70
2022-10-02T14:00:23.695Z,14.30
2022-10-02T14:06:33.450Z,13.90
2022-10-02T14:12:29.313Z,13.70
2022-10-02T14:18:14.863Z,13.50
2022-10-02T14:24:50.893Z,13.30
2022-10-02T14:30:46.519Z,13.20
2022-10-02T14:36:30.949Z,13.10
2022-10-02T14:43:00.212Z,13.00
2022-10-02T14:48:46.235Z,12.90
2022-10-02T14:55:10.384Z,12.80
2022-10-02T15:01:02.306Z,12.80
2022-10-02T15:06:51.243Z,12.80
2022-10-02T15:12:25.492Z,12.80
2022-10-02T15:18:17.438Z,12.70
2022-10-02T15:23:51.749Z,12.70
2022-10-02T15:29:54.549Z,12.60
2022-10-02T15:36:09.734Z,12.50
2022-10-02T15:41:42.396Z,12.50
2022-10-02T15:47:49.287Z,12.50
2022-10-02T15:53:32.805Z,12.50
2022-10-02T15:59:21.628Z,12.50
2022-10-02T16:05:35.356Z,12.40
2022-10-02T16:11:38.361Z,12.40
2022-10-02T16:17:14.479Z,12.40
2022-10-02T16:23:02.904Z,12.30
2022-10-02T16:29:05.934Z,12.20
2022-10-02T16:35:11.274Z,12.20
2022-10-02T16:41:09.673Z,12.20
2022-10-02T16:46:55.733Z,12.10
2022-10-02T16:52:47.502Z,12.10
2022-10-02T16:58:31.195Z,12.10
2022-10-02T17:04:41.561Z,12.00
2022-10-02T17:10:37.591Z,12.10
2022-10-02T17:16:11.205Z,12.10
2022-10-02T17:21:46.288Z,12.00
2022-10-02T17:27:33.557Z,12.00
2022-10-02T17:33:11.696Z,12.00
2022-10-02T17:39:34.091Z,12.00
2022-10-02T17:45:26.663Z,11.90
2022-10-02T17:57:59.039Z,11.90
2022-10-02T18:03:41.399Z,11.90
2022-10-02T18:09:44.575Z,11.80
2022-10-02T18:15:42.786Z,11.80
2022-10-02T18:21:40.958Z,11.80
2022-10-02T18:27:30.363Z,11.80
2022-10-02T18:33:25.263Z,11.80
2022-10-02T18:38:55.600Z,11.80
2022-10-02T18:45:07.141Z,11.70
2022-10-02T18:50:48.206Z,11.80
2022-10-02T18:56:40.588Z,11.80
2022-10-02T19:03:26.986Z,11.70
2022-10-02T19:09:09.840Z,11.80
2022-10-02T19:14:46.130Z,11.80
2022-10-02T19:20:45.877Z,11.80
2022-10-02T19:26:41.305Z,11.80
2022-10-02T19:32:42.544Z,11.80
2022-10-02T19:38:36.215Z,11.80
2022-10-02T19:44:42.215Z,11.80
2022-10-02T19:50:28.120Z,11.80
2022-10-02T19:56:05.906Z,11.80
2022-10-02T20:01:55.910Z,11.80
2022-10-02T20:07:36.533Z,11.80
2022-10-02T20:13:28.216Z,11.80
2022-10-02T20:18:56.651Z,11.80
2022-10-02T20:24:36.105Z,11.70
2022-10-02T20:30:12.968Z,11.70
2022-10-02T20:35:47.136Z,11.60
2022-10-02T20:41:27.424Z,11.60
2022-10-02T20:47:33.345Z,11.50
2022-10-02T20:53:28.855Z,11.50
2022-10-02T20:59:52.482Z,11.40
2022-10-02T21:05:45.215Z,11.40
2022-10-02T21:11:50.769Z,11.40
2022-10-02T21:17:58.584Z,11.30
2022-10-02T21:24:15.031Z,11.30
2022-10-02T21:30:11.837Z,11.30
2022-10-02T21:36:09.934Z,11.30
2022-10-02T21:42:35.206Z,11.30
2022-10-02T21:48:34.496Z,11.30
2022-10-02T21:54:39.309Z,11.30
2022-10-02T22:00:24.471Z,11.30
2022-10-02T22:06:25.894Z,11.30
2022-10-02T22:12:04.545Z,11.40
2022-10-02T22:18:14.167Z,11.40
2022-10-02T22:24:22.298Z,11.30
2022-10-02T22:29:54.181Z,11.30
2022-10-02T22:35:44.932Z,11.30
2022-10-02T22:41:38.520Z,11.30
2022-10-02T22:47:35.149Z,11.30
2022-10-02T22:53:31.196Z,11.30
2022-10-02T22:59:16.858Z,11.30
2022-10-02T23:04:50.590Z,11.30
2022-10-02T23:10:46.777Z,11.50
2022-10-02T23:16:52.140Z,11.40
2022-10-02T23:22:40.919Z,11.40
2022-10-02T23:28:27.118Z,11.30
2022-10-02T23:34:41.566Z,11.20
2022-10-02T23:40:47.918Z,11.20
2022-10-02T23:46:27.337Z,11.10
2022-10-02T23:52:53.106Z,11.10
2022-10-02T23:59:06.888Z,11.00
